Kirs, Russia
Current Conditions -  °F | °C
As of 3:00 AM on Saturday 20 Dec 2014 (Local Time) from UUYY Reporting Station
Overcast Overcast  
Wind Chill: 21°   Ceiling: 1000
Heat Index: 28°   Visibility: 5mi
Dew Point: 25°   Wind: 7mph
Humidity: 86%   Direction: 190°S
Pressure: 29.62"   Gusts: 13mph
Location:  59.33°N, 52.27°E
Report Text: UUYY 192300Z 19003G06MPS 8000 BKN010 OVC066 M02/M04 Q1003 NOSIG1945//39 RMK QFE743/0991
Loading
Personal Weather Stations






























Interactive Weather Map New forecast layout! Learn more

10-Day Weather Forecast

Advertisements
Track Severe Weather on mobile